Time;durP1;ratioP1;P1;durP2;ratioP2;P2;SDS_P1;SDS_P2;PMS_P1;PMS_P2;Temp;Humidity;BMP_temperature;BMP_pressure;BME280_temperature;BME280_humidity;BME280_pressure;Samples;Min_cycle;Max_cycle;Signal;HPM_P1;HPM_P2
2023/07/17 00:00:36;;;;;;;5.47;3.33;;;24.60;54.40;;;;;;4940360;28;20126;-52
2023/07/17 00:03:04;;;;;;;3.58;2.83;;;24.60;54.50;;;;;;4943369;28;20505;-52
2023/07/17 00:05:29;;;;;;;4.57;3.20;;;24.60;54.50;;;;;;4942218;28;20032;-51
2023/07/17 00:07:55;;;;;;;3.70;2.58;;;24.60;54.50;;;;;;4950377;28;20247;-51
2023/07/17 00:10:20;;;;;;;3.35;2.70;;;24.60;54.50;;;;;;4951146;28;20456;-52
2023/07/17 00:12:46;;;;;;;5.28;3.10;;;24.60;54.50;;;;;;4941091;28;20119;-52
2023/07/17 00:15:11;;;;;;;3.78;2.72;;;24.50;54.50;;;;;;4947772;28;20117;-51
2023/07/17 00:17:38;;;;;;;3.70;2.88;;;24.60;54.60;;;;;;4951520;28;20314;-52
2023/07/17 00:20:06;;;;;;;3.35;2.97;;;24.60;54.70;;;;;;4988843;28;20031;-51
2023/07/17 00:22:32;;;;;;;4.90;3.20;;;24.50;54.60;;;;;;4950906;28;20058;-52
2023/07/17 00:24:57;;;;;;;5.28;3.50;;;24.60;54.70;;;;;;4950481;28;20113;-50
2023/07/17 00:27:24;;;;;;;3.42;3.13;;;24.60;54.80;;;;;;4946023;28;20490;-55
2023/07/17 00:29:49;;;;;;;3.78;2.70;;;24.60;54.80;;;;;;4962629;28;20106;-53
2023/07/17 00:32:15;;;;;;;3.40;2.72;;;24.50;55.50;;;;;;4958292;28;20122;-50
2023/07/17 00:34:41;;;;;;;5.25;3.40;;;24.50;54.90;;;;;;4947670;28;20063;-52
2023/07/17 00:37:07;;;;;;;5.03;3.00;;;24.50;54.90;;;;;;4955466;28;20062;-51
2023/07/17 00:39:34;;;;;;;3.47;3.08;;;24.50;55.50;;;;;;4945068;28;20438;-52
2023/07/17 00:42:01;;;;;;;4.25;3.20;;;24.50;54.90;;;;;;4946168;28;20032;-50
2023/07/17 00:44:27;;;;;;;3.25;2.70;;;24.50;54.90;;;;;;4945457;28;20028;-52
2023/07/17 00:46:54;;;;;;;4.22;2.75;;;24.50;55.00;;;;;;4937671;28;20099;-52
2023/07/17 00:49:22;;;;;;;6.75;3.03;;;24.50;55.00;;;;;;4939243;28;20036;-53
2023/07/17 00:51:48;;;;;;;3.83;2.88;;;24.50;55.00;;;;;;4948404;28;20041;-52
2023/07/17 00:54:14;;;;;;;6.43;3.33;;;24.50;55.00;;;;;;4945590;28;20110;-52
2023/07/17 00:56:41;;;;;;;5.25;3.03;;;24.50;55.10;;;;;;4941739;28;20043;-51
2023/07/17 00:59:06;;;;;;;3.78;3.00;;;24.50;55.00;;;;;;4954400;28;20038;-52
2023/07/17 01:01:33;;;;;;;5.72;3.38;;;24.50;55.00;;;;;;4941793;28;20035;-53
2023/07/17 01:04:01;;;;;;;4.88;3.42;;;24.50;55.10;;;;;;4942747;28;20039;-53
2023/07/17 01:06:27;;;;;;;3.92;2.80;;;24.50;55.70;;;;;;4940497;28;20135;-51
2023/07/17 01:08:52;;;;;;;3.08;2.42;;;24.50;55.00;;;;;;4947270;28;20538;-61
2023/07/17 01:11:18;;;;;;;4.28;3.13;;;24.50;55.00;;;;;;4951516;28;20038;-50
2023/07/17 01:13:45;;;;;;;5.65;2.92;;;24.40;55.00;;;;;;4947809;28;20085;-50
2023/07/17 01:16:11;;;;;;;4.55;2.70;;;24.50;55.00;;;;;;4941955;28;20118;-51
2023/07/17 01:18:36;;;;;;;4.22;3.03;;;24.40;55.00;;;;;;4944477;28;20114;-51
2023/07/17 01:21:04;;;;;;;4.28;3.13;;;24.40;55.00;;;;;;4945710;28;20449;-52
2023/07/17 01:23:31;;;;;;;3.88;2.85;;;24.50;55.20;;;;;;4948297;28;20043;-51
2023/07/17 01:25:56;;;;;;;5.40;3.53;;;24.40;55.20;;;;;;4942915;28;20035;-53
2023/07/17 01:28:22;;;;;;;5.32;3.15;;;24.40;55.20;;;;;;4946616;28;20020;-49
2023/07/17 01:30:47;;;;;;;4.28;3.03;;;24.40;55.30;;;;;;4952382;28;20030;-52
2023/07/17 01:33:13;;;;;;;4.55;3.13;;;24.40;55.40;;;;;;4939088;28;20042;-51
2023/07/17 01:35:38;;;;;;;4.82;3.10;;;24.40;55.40;;;;;;4948329;28;20032;-51
2023/07/17 01:38:04;;;;;;;4.35;3.05;;;24.40;55.50;;;;;;4950211;28;20086;-50
2023/07/17 01:40:29;;;;;;;7.03;3.72;;;24.40;55.40;;;;;;4956718;28;20034;-53
2023/07/17 01:42:55;;;;;;;3.95;3.22;;;24.40;55.40;;;;;;4961389;28;20485;-52
2023/07/17 01:45:20;;;;;;;4.15;3.03;;;24.40;55.40;;;;;;4952732;28;20484;-50
2023/07/17 01:47:46;;;;;;;4.35;3.35;;;24.40;55.40;;;;;;4945281;28;20047;-50
2023/07/17 01:50:11;;;;;;;3.17;2.65;;;24.30;55.40;;;;;;4945381;28;20035;-50
2023/07/17 01:52:37;;;;;;;3.97;3.10;;;24.40;55.50;;;;;;4950150;28;20091;-51
2023/07/17 01:55:02;;;;;;;3.33;2.90;;;24.40;55.50;;;;;;4947123;28;20043;-51
2023/07/17 01:57:28;;;;;;;4.28;2.92;;;24.40;55.60;;;;;;4944029;28;20033;-51
2023/07/17 01:59:53;;;;;;;4.30;2.80;;;24.30;55.70;;;;;;4942661;28;20032;-54
2023/07/17 02:02:19;;;;;;;4.68;2.83;;;24.40;55.70;;;;;;4944507;28;20580;-50
2023/07/17 02:04:44;;;;;;;3.63;2.88;;;24.40;55.80;;;;;;4949823;28;20556;-50
2023/07/17 02:07:10;;;;;;;5.65;3.38;;;24.30;55.60;;;;;;4953461;28;20055;-51
2023/07/17 02:09:35;;;;;;;4.03;2.80;;;24.30;55.60;;;;;;4956195;28;20656;-52
2023/07/17 02:12:01;;;;;;;3.30;2.97;;;24.30;55.60;;;;;;4991291;28;20045;-52
2023/07/17 02:14:26;;;;;;;5.28;3.20;;;24.30;55.60;;;;;;4944040;28;20038;-53
2023/07/17 02:16:52;;;;;;;5.75;2.80;;;24.30;55.60;;;;;;4953791;28;20077;-52
2023/07/17 02:19:19;;;;;;;5.40;3.03;;;24.30;55.60;;;;;;4955254;28;20038;-49
2023/07/17 02:21:44;;;;;;;3.88;3.30;;;24.30;55.70;;;;;;4948008;28;20027;-52
2023/07/17 02:24:09;;;;;;;3.00;2.70;;;24.30;55.70;;;;;;4950324;28;20090;-52
2023/07/17 02:26:35;;;;;;;3.53;2.90;;;24.30;55.80;;;;;;4949843;28;20063;-52
2023/07/17 02:29:01;;;;;;;3.70;2.92;;;24.30;55.80;;;;;;4963022;28;20694;-54
2023/07/17 02:31:26;;;;;;;3.95;3.10;;;24.30;55.80;;;;;;4962310;28;20069;-51
2023/07/17 02:33:52;;;;;;;4.75;2.88;;;24.30;55.80;;;;;;4964067;28;20046;-50
2023/07/17 02:36:17;;;;;;;4.28;3.05;;;24.20;55.80;;;;;;4950407;28;20035;-53
2023/07/17 02:38:43;;;;;;;3.25;2.70;;;24.30;55.80;;;;;;4962358;28;20070;-52
2023/07/17 02:41:08;;;;;;;4.30;2.90;;;24.30;55.90;;;;;;4952264;28;20039;-50
2023/07/17 02:43:34;;;;;;;4.80;3.10;;;24.30;55.70;;;;;;4954657;28;20537;-51
2023/07/17 02:46:00;;;;;;;3.47;2.88;;;24.20;55.70;;;;;;4957490;28;20034;-49
2023/07/17 02:48:25;;;;;;;4.25;3.17;;;24.20;55.80;;;;;;4956943;28;20069;-51
2023/07/17 02:50:51;;;;;;;4.13;3.35;;;24.30;55.80;;;;;;4964493;28;20022;-54
2023/07/17 02:53:17;;;;;;;4.78;3.33;;;24.30;55.80;;;;;;4964019;28;20556;-52
2023/07/17 02:55:42;;;;;;;5.10;3.35;;;24.20;55.70;;;;;;4949331;28;20079;-52
2023/07/17 02:58:08;;;;;;;3.38;2.95;;;24.20;55.70;;;;;;4954395;28;20032;-51
2023/07/17 03:00:34;;;;;;;6.45;3.47;;;24.20;56.10;;;;;;4945286;28;20034;-51
2023/07/17 03:03:00;;;;;;;3.70;2.72;;;24.20;55.70;;;;;;4951199;28;20109;-51
2023/07/17 03:05:25;;;;;;;3.33;2.70;;;24.20;55.70;;;;;;4944511;28;20110;-49
2023/07/17 03:07:51;;;;;;;4.93;2.90;;;24.20;55.80;;;;;;4954179;28;20039;-49
2023/07/17 03:10:17;;;;;;;4.55;3.28;;;24.20;55.60;;;;;;4950511;28;20031;-53
2023/07/17 03:12:43;;;;;;;4.50;3.55;;;24.20;55.70;;;;;;4946976;28;20035;-50
2023/07/17 03:15:09;;;;;;;7.05;3.25;;;24.20;55.70;;;;;;4956178;28;20435;-52
2023/07/17 03:17:35;;;;;;;4.22;3.38;;;24.20;55.60;;;;;;4954600;28;20039;-50
2023/07/17 03:20:03;;;;;;;4.43;3.30;;;24.20;55.50;;;;;;4954832;28;20028;-54
2023/07/17 03:22:29;;;;;;;3.90;2.90;;;24.20;55.50;;;;;;4948453;28;20028;-52
2023/07/17 03:24:55;;;;;;;3.55;2.92;;;24.20;55.30;;;;;;4946655;28;20049;-52
2023/07/17 03:27:21;;;;;;;4.05;3.50;;;24.20;55.30;;;;;;4949643;28;20136;-51
2023/07/17 03:29:47;;;;;;;3.45;2.80;;;24.10;55.20;;;;;;4946339;28;21537;-52
2023/07/17 03:32:13;;;;;;;4.03;2.97;;;24.10;55.20;;;;;;4945276;28;20039;-54
2023/07/17 03:34:38;;;;;;;4.28;3.30;;;24.10;55.20;;;;;;4959057;28;20128;-54
2023/07/17 03:37:04;;;;;;;4.85;2.92;;;24.20;55.20;;;;;;4952742;28;20418;-53
2023/07/17 03:39:30;;;;;;;6.10;3.67;;;24.10;55.10;;;;;;4954430;28;20034;-51
2023/07/17 03:41:55;;;;;;;4.93;3.20;;;24.10;55.00;;;;;;4949742;28;20114;-52
2023/07/17 03:44:21;;;;;;;4.90;2.83;;;24.10;55.00;;;;;;4947256;28;20024;-51
2023/07/17 03:46:46;;;;;;;5.47;3.15;;;24.10;54.90;;;;;;4955809;23;20114;-52
2023/07/17 03:49:12;;;;;;;4.15;3.05;;;24.10;55.00;;;;;;4982129;28;20077;-54
2023/07/17 03:51:37;;;;;;;4.65;3.30;;;24.10;55.00;;;;;;4965734;28;20440;-50
2023/07/17 03:54:03;;;;;;;5.95;3.80;;;24.10;55.00;;;;;;4975829;28;20805;-51
2023/07/17 03:56:29;;;;;;;4.35;3.45;;;24.10;55.00;;;;;;4967407;28;20107;-49
2023/07/17 03:58:54;;;;;;;4.55;3.33;;;24.10;54.90;;;;;;4965706;28;20034;-53
2023/07/17 04:01:20;;;;;;;5.30;3.30;;;24.10;54.90;;;;;;4979622;28;20030;-51
2023/07/17 04:03:45;;;;;;;5.25;3.35;;;24.10;54.90;;;;;;4971009;28;20063;-54
2023/07/17 04:06:11;;;;;;;4.80;3.13;;;24.10;54.80;;;;;;4974261;28;20104;-50
2023/07/17 04:08:36;;;;;;;4.28;2.88;;;24.10;54.80;;;;;;4970880;28;20034;-54
2023/07/17 04:11:02;;;;;;;4.63;3.00;;;24.10;54.70;;;;;;4977531;28;20038;-49
2023/07/17 04:13:27;;;;;;;5.82;3.05;;;24.10;54.80;;;;;;4982266;28;20038;-51
2023/07/17 04:15:53;;;;;;;4.00;3.30;;;24.10;54.80;;;;;;4978355;28;20026;-50
2023/07/17 04:18:19;;;;;;;4.13;3.42;;;24.10;54.90;;;;;;4983456;28;20038;-54
2023/07/17 04:20:44;;;;;;;3.85;3.05;;;24.10;54.80;;;;;;4982572;28;20026;-49
2023/07/17 04:23:12;;;;;;;3.40;3.05;;;24.10;54.90;;;;;;4982811;28;20038;-50
2023/07/17 04:25:40;;;;;;;4.45;3.17;;;24.00;54.80;;;;;;4978387;28;20034;-52
2023/07/17 04:28:06;;;;;;;4.45;3.08;;;24.00;54.70;;;;;;4982722;28;20034;-52
2023/07/17 04:30:31;;;;;;;4.68;3.63;;;24.10;54.90;;;;;;4978197;28;20053;-52
2023/07/17 04:32:58;;;;;;;5.30;3.42;;;24.10;54.90;;;;;;4983292;28;20062;-58
2023/07/17 04:35:23;;;;;;;4.75;3.15;;;24.00;54.90;;;;;;4980636;28;20061;-53
2023/07/17 04:37:50;;;;;;;5.32;3.58;;;24.10;54.90;;;;;;4982181;28;20093;-49
2023/07/17 04:40:16;;;;;;;4.97;3.33;;;24.00;54.90;;;;;;4981760;28;20048;-51
2023/07/17 04:42:41;;;;;;;5.88;3.67;;;24.00;54.90;;;;;;4974352;28;20034;-50
2023/07/17 04:45:07;;;;;;;4.40;3.33;;;24.10;54.90;;;;;;4977659;28;20628;-49
2023/07/17 04:47:33;;;;;;;5.43;3.65;;;24.10;54.80;;;;;;4981861;28;20496;-50
2023/07/17 04:49:59;;;;;;;3.85;3.28;;;24.10;54.80;;;;;;4970792;28;20132;-53
2023/07/17 04:52:24;;;;;;;4.13;3.50;;;24.10;54.80;;;;;;4983474;28;20031;-50
2023/07/17 04:54:50;;;;;;;7.00;3.67;;;24.00;54.80;;;;;;4974874;28;20511;-49
2023/07/17 04:57:16;;;;;;;4.85;4.07;;;24.00;54.80;;;;;;4981692;28;20552;-53
2023/07/17 04:59:42;;;;;;;4.35;3.38;;;24.10;54.80;;;;;;4979017;28;20183;-48
2023/07/17 05:02:07;;;;;;;5.85;3.80;;;24.10;54.90;;;;;;4976026;28;20034;-49
2023/07/17 05:04:33;;;;;;;4.38;3.70;;;24.00;54.80;;;;;;4981090;28;20030;-50
2023/07/17 05:06:59;;;;;;;3.85;3.33;;;24.00;54.80;;;;;;4975447;28;20396;-51
2023/07/17 05:09:24;;;;;;;5.93;3.78;;;24.00;54.80;;;;;;4983587;28;20074;-50
2023/07/17 05:11:50;;;;;;;3.97;3.20;;;24.10;54.90;;;;;;4974746;28;20053;-52
2023/07/17 05:14:16;;;;;;;4.95;3.17;;;24.00;54.90;;;;;;4982812;28;20038;-51
2023/07/17 05:16:41;;;;;;;6.78;3.50;;;24.10;54.90;;;;;;4967229;28;20022;-50
2023/07/17 05:19:07;;;;;;;6.05;3.63;;;24.10;55.00;;;;;;4983194;28;20053;-48
2023/07/17 05:21:33;;;;;;;4.32;3.35;;;24.10;55.00;;;;;;4977569;28;20079;-50
2023/07/17 05:23:58;;;;;;;5.18;3.35;;;24.00;55.00;;;;;;4978995;28;20196;-51
2023/07/17 05:26:24;;;;;;;5.25;3.60;;;24.10;55.10;;;;;;4979470;28;20038;-54
2023/07/17 05:28:51;;;;;;;5.05;3.50;;;24.10;55.10;;;;;;4981421;28;20038;-52
2023/07/17 05:31:17;;;;;;;4.90;3.70;;;24.10;55.20;;;;;;4980232;28;20086;-53
2023/07/17 05:33:42;;;;;;;5.70;3.33;;;24.00;55.20;;;;;;4981055;28;20022;-51
2023/07/17 05:36:08;;;;;;;6.65;3.65;;;24.10;55.20;;;;;;4984756;28;20090;-51
2023/07/17 05:38:33;;;;;;;5.72;3.78;;;24.10;55.30;;;;;;4978045;28;20037;-47
2023/07/17 05:41:02;;;;;;;6.38;3.50;;;24.10;55.30;;;;;;4984753;28;20536;-52
2023/07/17 05:43:30;;;;;;;4.85;3.90;;;24.10;55.30;;;;;;4986580;28;20053;-57
2023/07/17 05:45:56;;;;;;;5.40;3.78;;;24.10;55.30;;;;;;4985960;28;20530;-48
2023/07/17 05:48:21;;;;;;;5.60;3.63;;;24.10;55.20;;;;;;4987099;28;20119;-50
2023/07/17 05:50:47;;;;;;;4.55;3.55;;;24.00;55.10;;;;;;4985376;28;22894;-49
2023/07/17 05:53:13;;;;;;;5.90;3.53;;;24.00;55.10;;;;;;4984783;28;20034;-52
2023/07/17 05:55:38;;;;;;;5.28;3.83;;;24.00;55.00;;;;;;4985245;28;20050;-49
2023/07/17 05:58:04;;;;;;;6.32;3.70;;;24.00;55.00;;;;;;4978141;28;20687;-49
2023/07/17 06:00:29;;;;;;;4.85;3.58;;;24.00;55.00;;;;;;4986601;28;20034;-53
2023/07/17 06:02:55;;;;;;;7.35;4.45;;;24.10;55.00;;;;;;4984275;28;20991;-51
2023/07/17 06:05:20;;;;;;;5.80;3.75;;;24.00;55.00;;;;;;4986387;28;20101;-52
2023/07/17 06:07:46;;;;;;;7.07;4.30;;;24.10;55.00;;;;;;4976755;28;20041;-51
2023/07/17 06:10:12;;;;;;;7.00;4.28;;;24.10;55.00;;;;;;4986558;28;20117;-50
2023/07/17 06:12:39;;;;;;;5.13;3.60;;;24.10;55.00;;;;;;4978342;28;20026;-51
2023/07/17 06:15:05;;;;;;;6.30;3.92;;;24.10;54.90;;;;;;4985271;28;20038;-50
2023/07/17 06:17:31;;;;;;;7.28;3.88;;;24.10;54.90;;;;;;4977522;28;20081;-50
2023/07/17 06:19:57;;;;;;;4.88;4.00;;;24.20;54.80;;;;;;4984512;28;21250;-48
2023/07/17 06:22:22;;;;;;;5.53;3.72;;;24.20;54.80;;;;;;4980373;28;20546;-51
2023/07/17 06:24:48;;;;;;;5.47;3.95;;;24.20;55.00;;;;;;4984405;28;20765;-52
2023/07/17 06:27:13;;;;;;;5.53;4.15;;;24.20;55.00;;;;;;4981031;28;20088;-54
2023/07/17 06:29:39;;;;;;;5.70;3.67;;;24.10;54.70;;;;;;4984542;28;20046;-52
2023/07/17 06:32:05;;;;;;;5.07;4.15;;;24.20;54.60;;;;;;4981718;28;20037;-53
2023/07/17 06:34:30;;;;;;;6.25;4.28;;;24.20;54.50;;;;;;4986033;28;20065;-52
2023/07/17 06:36:56;;;;;;;5.53;4.30;;;24.20;54.50;;;;;;4981986;28;20042;-53
2023/07/17 06:39:22;;;;;;;5.85;4.47;;;24.20;54.50;;;;;;4980237;28;20136;-52
2023/07/17 06:41:47;;;;;;;5.13;3.75;;;24.30;54.50;;;;;;4983232;28;20516;-51
2023/07/17 06:44:13;;;;;;;5.78;3.65;;;24.30;54.50;;;;;;4984886;28;20697;-52
2023/07/17 06:46:38;;;;;;;4.63;3.83;;;24.30;54.50;;;;;;4977542;28;20043;-54
2023/07/17 06:49:04;;;;;;;7.30;4.32;;;24.30;54.50;;;;;;4983660;28;20496;-50
2023/07/17 06:51:29;;;;;;;6.15;3.72;;;24.30;54.50;;;;;;4986655;28;20038;-50
2023/07/17 06:53:55;;;;;;;7.28;4.13;;;24.30;54.60;;;;;;4981249;28;20023;-52
2023/07/17 06:56:21;;;;;;;5.32;3.35;;;24.20;54.60;;;;;;4986013;28;20061;-53
2023/07/17 06:58:46;;;;;;;6.03;3.95;;;24.20;54.90;;;;;;4983061;28;20577;-50
2023/07/17 07:01:14;;;;;;;4.30;3.45;;;24.30;54.80;;;;;;4985272;28;20034;-52
2023/07/17 07:03:40;;;;;;;5.18;3.72;;;24.30;54.40;;;;;;4982394;28;20672;-52
2023/07/17 07:06:06;;;;;;;4.70;3.85;;;24.30;54.30;;;;;;4983336;28;20488;-54
2023/07/17 07:08:32;;;;;;;6.32;3.42;;;24.30;54.20;;;;;;4983598;28;20088;-53
2023/07/17 07:11:00;;;;;;;6.25;3.58;;;24.30;54.00;;;;;;4984743;28;20027;-54
2023/07/17 07:13:26;;;;;;;10.20;4.60;;;24.30;53.60;;;;;;4980005;28;20027;-52
2023/07/17 07:15:52;;;;;;;8.35;4.15;;;24.30;53.30;;;;;;4980454;28;20050;-51
2023/07/17 07:18:19;;;;;;;5.00;3.90;;;24.30;53.20;;;;;;4978469;28;20026;-49
2023/07/17 07:20:46;;;;;;;5.80;3.78;;;24.30;53.30;;;;;;4979234;28;20026;-50
2023/07/17 07:23:11;;;;;;;6.93;4.32;;;24.30;53.20;;;;;;4981098;28;20081;-50
2023/07/17 07:25:37;;;;;;;6.50;3.70;;;24.30;53.40;;;;;;4988541;28;20400;-51
2023/07/17 07:28:03;;;;;;;4.65;3.58;;;24.30;53.30;;;;;;4974509;28;20035;-49
2023/07/17 07:30:29;;;;;;;5.43;3.72;;;24.30;53.10;;;;;;4972066;28;20475;-52
2023/07/17 07:32:55;;;;;;;5.30;4.20;;;24.40;53.10;;;;;;4976445;28;20037;-52
2023/07/17 07:35:20;;;;;;;6.13;4.20;;;24.30;52.80;;;;;;4981282;28;20038;-53
2023/07/17 07:37:46;;;;;;;8.32;3.80;;;24.30;52.70;;;;;;4981700;28;20030;-54
2023/07/17 07:40:12;;;;;;;5.35;4.18;;;24.30;52.60;;;;;;4983804;28;20545;-53
2023/07/17 07:42:44;;;;;;;5.50;3.60;;;24.30;52.60;;;;;;4983300;28;20031;-52
2023/07/17 07:45:10;;;;;;;4.55;3.70;;;24.40;52.70;;;;;;4982917;28;20073;-54
2023/07/17 07:47:36;;;;;;;4.78;3.65;;;24.30;52.60;;;;;;4977657;28;20125;-49
2023/07/17 07:50:03;;;;;;;5.97;3.97;;;24.30;52.60;;;;;;4980318;28;20109;-48
2023/07/17 07:52:28;;;;;;;5.05;3.40;;;24.30;52.70;;;;;;4977762;28;20500;-48
2023/07/17 07:54:54;;;;;;;5.75;3.63;;;24.30;52.60;;;;;;4972683;28;20053;-51
2023/07/17 07:57:20;;;;;;;4.72;3.03;;;24.30;52.40;;;;;;4983060;28;20680;-50
2023/07/17 07:59:45;;;;;;;4.45;3.53;;;24.30;52.00;;;;;;4973220;28;20027;-56
2023/07/17 08:02:12;;;;;;;5.90;3.90;;;24.40;51.90;;;;;;4980577;28;20030;-51
2023/07/17 08:04:37;;;;;;;5.70;3.80;;;24.40;51.90;;;;;;4980850;28;20883;-48
2023/07/17 08:07:03;;;;;;;5.72;3.92;;;24.30;51.50;;;;;;4976133;28;20170;-53
2023/07/17 08:09:29;;;;;;;4.70;3.22;;;24.30;51.60;;;;;;4982780;28;20040;-53
2023/07/17 08:11:55;;;;;;;5.15;4.00;;;24.30;51.80;;;;;;4973444;28;20456;-48
2023/07/17 08:14:21;;;;;;;4.65;3.40;;;24.30;52.00;;;;;;4982910;28;20085;-53
2023/07/17 08:16:47;;;;;;;5.07;4.05;;;24.30;52.50;;;;;;4974621;28;21771;-56
2023/07/17 08:19:13;;;;;;;5.93;3.90;;;24.30;52.70;;;;;;4982536;28;20027;-54
2023/07/17 08:21:39;;;;;;;5.47;3.25;;;24.30;52.80;;;;;;4976544;28;20110;-56
2023/07/17 08:24:05;;;;;;;5.47;3.15;;;24.30;53.10;;;;;;4978043;28;20104;-51
2023/07/17 08:26:31;;;;;;;6.00;3.20;;;24.40;53.30;;;;;;4979684;28;20045;-55
2023/07/17 08:28:56;;;;;;;4.65;3.33;;;24.30;53.40;;;;;;4973243;28;20030;-51
2023/07/17 08:31:22;;;;;;;4.80;3.30;;;24.30;53.50;;;;;;4978466;28;20026;-52
2023/07/17 08:33:47;;;;;;;5.30;3.33;;;24.30;53.50;;;;;;4979673;28;20038;-51
2023/07/17 08:36:13;;;;;;;6.78;3.90;;;24.30;53.40;;;;;;4982432;28;20030;-55
2023/07/17 08:38:38;;;;;;;5.95;3.95;;;24.20;53.60;;;;;;4979320;28;20041;-53
2023/07/17 08:41:06;;;;;;;7.57;3.83;;;24.20;53.50;;;;;;4979388;28;20019;-55
2023/07/17 08:43:33;;;;;;;6.00;4.18;;;24.20;53.60;;;;;;4981129;28;20027;-49
2023/07/17 08:45:59;;;;;;;4.93;3.67;;;24.20;53.50;;;;;;4975098;28;20034;-55
2023/07/17 08:48:26;;;;;;;6.25;3.40;;;24.20;54.10;;;;;;4975458;28;20070;-48
2023/07/17 08:50:52;;;;;;;5.47;3.58;;;24.30;53.30;;;;;;4978959;28;20511;-50
2023/07/17 08:53:19;;;;;;;5.15;3.33;;;24.30;53.30;;;;;;4979837;28;20203;-55
2023/07/17 08:55:46;;;;;;;4.55;3.40;;;24.30;53.30;;;;;;4982333;28;20109;-48
2023/07/17 08:58:11;;;;;;;4.78;3.53;;;24.40;53.20;;;;;;4981155;28;20109;-50
2023/07/17 09:00:39;;;;;;;4.97;3.85;;;24.30;53.00;;;;;;4974572;28;20196;-58
2023/07/17 09:03:04;;;;;;;5.15;3.30;;;24.30;52.80;;;;;;4980841;28;20077;-57
2023/07/17 09:05:30;;;;;;;6.07;3.83;;;24.30;52.70;;;;;;4977850;28;20034;-54
2023/07/17 09:07:55;;;;;;;6.28;3.50;;;24.40;52.80;;;;;;4975855;28;20480;-57
2023/07/17 09:10:23;;;;;;;5.60;3.58;;;24.40;52.80;;;;;;4978618;28;20022;-51
2023/07/17 09:12:59;;;;;;;6.30;3.67;;;24.30;52.80;;;;;;4980401;28;20396;-55
2023/07/17 09:15:27;;;;;;;4.85;3.75;;;24.30;53.20;;;;;;4977952;28;20045;-56
2023/07/17 09:17:53;;;;;;;5.20;3.70;;;24.30;53.30;;;;;;4990886;28;20042;-56
2023/07/17 09:20:19;;;;;;;6.28;4.13;;;24.30;53.00;;;;;;4981900;28;20573;-48
2023/07/17 09:22:46;;;;;;;6.72;4.00;;;24.20;53.20;;;;;;4974805;28;20403;-52
2023/07/17 09:25:13;;;;;;;5.28;3.35;;;24.30;53.10;;;;;;4971472;28;20105;-52
2023/07/17 09:27:46;;;;;;;5.15;3.78;;;24.30;53.10;;;;;;4978273;28;20491;-56
2023/07/17 09:30:19;;;;;;;6.30;4.10;;;24.30;53.00;;;;;;4977121;28;20038;-48
2023/07/17 09:32:47;;;;;;;6.95;4.30;;;24.20;52.00;;;;;;4972335;28;20036;-52
2023/07/17 09:35:13;;;;;;;4.45;3.78;;;24.20;51.90;;;;;;4970719;28;20488;-49
2023/07/17 09:37:44;;;;;;;7.53;4.80;;;24.20;51.90;;;;;;4965482;28;20027;-48
2023/07/17 09:40:11;;;;;;;6.88;4.18;;;24.20;51.40;;;;;;4977048;28;20720;-56
2023/07/17 09:42:38;;;;;;;8.77;4.78;;;24.20;51.00;;;;;;4982028;28;20042;-52
2023/07/17 09:45:04;;;;;;;6.55;4.65;;;24.20;50.70;;;;;;4972085;28;20030;-52
2023/07/17 09:47:33;;;;;;;7.70;4.30;;;24.20;50.50;;;;;;4973018;28;20088;-53
2023/07/17 09:50:01;;;;;;;7.00;4.75;;;24.20;50.90;;;;;;4966525;28;20161;-52
2023/07/17 09:52:31;;;;;;;6.03;4.30;;;24.30;50.70;;;;;;4978723;28;20054;-55
2023/07/17 09:55:00;;;;;;;6.85;4.15;;;24.30;50.90;;;;;;4977939;28;20027;-54
2023/07/17 09:57:37;;;;;;;4.80;3.80;;;24.30;51.10;;;;;;4976787;28;20026;-57
2023/07/17 10:00:13;;;;;;;8.50;4.38;;;24.30;51.20;;;;;;4977517;28;20038;-49
2023/07/17 10:02:45;;;;;;;4.53;3.60;;;24.30;51.60;;;;;;4970368;28;20040;-60
2023/07/17 10:05:11;;;;;;;5.13;3.70;;;24.30;51.80;;;;;;4967620;28;20150;-56
2023/07/17 10:07:38;;;;;;;7.38;4.05;;;24.30;51.90;;;;;;4981415;28;20042;-48
2023/07/17 10:10:05;;;;;;;5.00;3.90;;;24.30;52.00;;;;;;4977538;28;20147;-55
2023/07/17 10:12:31;;;;;;;5.93;4.20;;;24.30;52.00;;;;;;4977941;28;20055;-50
2023/07/17 10:14:58;;;;;;;6.15;4.38;;;24.30;52.00;;;;;;4979427;28;20030;-55
2023/07/17 10:17:34;;;;;;;4.75;3.88;;;24.30;52.00;;;;;;4980833;28;20038;-50
2023/07/17 10:20:08;;;;;;;5.50;4.82;;;24.30;52.00;;;;;;4974079;28;20031;-51
2023/07/17 10:22:38;;;;;;;5.88;4.60;;;24.30;52.00;;;;;;4975953;28;20511;-54
2023/07/17 10:25:19;;;;;;;5.15;3.88;;;24.30;52.00;;;;;;4984845;28;20091;-53
2023/07/17 10:27:52;;;;;;;6.63;3.95;;;24.30;51.90;;;;;;4979192;28;20038;-48
2023/07/17 10:30:23;;;;;;;6.30;4.18;;;24.30;51.70;;;;;;4985065;28;20469;-50
2023/07/17 10:33:09;;;;;;;5.65;4.28;;;24.30;51.80;;;;;;4972961;28;20034;-51
2023/07/17 10:35:49;;;;;;;5.20;4.70;;;24.20;51.70;;;;;;4976604;28;20030;-47
2023/07/17 10:38:26;;;;;;;5.10;4.32;;;24.20;52.10;;;;;;4969600;28;20055;-53
2023/07/17 10:41:03;;;;;;;5.40;4.10;;;24.30;51.90;;;;;;4973940;28;20125;-53
2023/07/17 10:43:29;;;;;;;6.55;4.50;;;24.30;52.20;;;;;;4978766;28;20054;-48
2023/07/17 10:45:54;;;;;;;6.53;4.05;;;24.30;52.20;;;;;;4976309;28;20067;-52
2023/07/17 10:48:24;;;;;;;4.68;3.88;;;24.30;52.30;;;;;;4977344;28;20117;-53
2023/07/17 10:50:53;;;;;;;6.85;4.07;;;24.30;52.40;;;;;;4965579;28;20124;-53
2023/07/17 10:53:19;;;;;;;9.07;4.05;;;24.30;52.30;;;;;;4978066;28;20034;-55
2023/07/17 10:55:46;;;;;;;5.50;3.97;;;24.30;52.20;;;;;;4982636;28;20034;-51
2023/07/17 10:58:12;;;;;;;6.07;3.88;;;24.30;52.10;;;;;;4984417;28;20034;-56
2023/07/17 11:00:42;;;;;;;7.50;4.25;;;24.30;52.10;;;;;;4978048;28;20042;-57
2023/07/17 11:03:17;;;;;;;4.88;3.83;;;24.40;52.00;;;;;;4977930;28;20031;-56
2023/07/17 11:05:44;;;;;;;;;;;24.30;52.00;;;;;;4983370;28;20030;-53
2023/07/17 11:08:14;;;;;;;6.63;4.20;;;24.30;52.10;;;;;;4979074;28;20049;-56
2023/07/17 11:10:42;;;;;;;6.07;4.25;;;24.40;52.20;;;;;;4983961;28;20034;-52
2023/07/17 11:13:09;;;;;;;5.80;3.88;;;24.40;52.10;;;;;;4980980;28;20030;-55
2023/07/17 11:15:36;;;;;;;5.80;4.38;;;24.30;52.40;;;;;;4972982;28;20030;-54
2023/07/17 11:18:04;;;;;;;5.75;4.13;;;24.30;52.30;;;;;;4984463;28;20128;-56
2023/07/17 11:20:30;;;;;;;5.15;4.10;;;24.30;52.30;;;;;;4978163;28;20129;-55
2023/07/17 11:22:57;;;;;;;4.45;3.90;;;24.30;51.80;;;;;;4977881;28;20084;-53
2023/07/17 11:25:28;;;;;;;5.38;3.90;;;24.30;52.20;;;;;;4982909;28;20106;-50
2023/07/17 11:27:56;;;;;;;4.43;3.35;;;24.30;52.00;;;;;;4974924;28;20122;-56
2023/07/17 11:30:34;;;;;;;5.93;3.65;;;24.40;52.00;;;;;;4976068;28;20034;-55
2023/07/17 11:33:02;;;;;;;6.68;4.07;;;24.30;52.10;;;;;;4976474;28;20065;-56
2023/07/17 11:35:47;;;;;;;7.18;4.15;;;24.30;52.40;;;;;;4977730;28;20035;-55
2023/07/17 11:38:15;;;;;;;6.20;4.15;;;24.30;52.40;;;;;;4980936;28;20034;-51
2023/07/17 11:40:54;;;;;;;6.07;3.83;;;24.30;52.40;;;;;;4983863;28;20049;-52
2023/07/17 11:43:25;;;;;;;5.68;4.30;;;24.40;52.20;;;;;;4982285;28;20041;-54
2023/07/17 11:45:52;;;;;;;5.60;3.75;;;24.30;52.00;;;;;;4969025;28;20038;-53
2023/07/17 11:48:18;;;;;;;5.43;3.90;;;24.30;52.10;;;;;;4969810;28;20134;-54
2023/07/17 11:50:44;;;;;;;7.15;4.40;;;24.30;52.10;;;;;;4983582;28;20706;-56
2023/07/17 11:53:13;;;;;;;5.43;3.95;;;24.30;52.10;;;;;;4982565;28;20069;-58
2023/07/17 11:55:40;;;;;;;5.43;4.18;;;24.40;52.20;;;;;;4970209;28;20030;-54
2023/07/17 11:58:35;;;;;;;5.38;3.92;;;24.40;52.10;;;;;;4983618;28;20030;-53
2023/07/17 12:01:01;;;;;;;7.97;3.65;;;24.40;51.50;;;;;;4982093;28;20113;-52
2023/07/17 12:03:27;;;;;;;4.78;4.20;;;24.50;51.30;;;;;;4983159;28;20459;-51
2023/07/17 12:05:52;;;;;;;9.35;4.03;;;24.40;51.60;;;;;;4983531;28;20121;-56
2023/07/17 12:08:18;;;;;;;4.28;3.33;;;24.40;51.40;;;;;;4976888;28;20042;-54
2023/07/17 12:10:44;;;;;;;4.20;3.50;;;24.40;51.30;;;;;;4983421;28;20030;-57
2023/07/17 12:13:10;;;;;;;4.47;3.72;;;24.40;51.40;;;;;;4977771;28;20477;-58
2023/07/17 12:15:36;;;;;;;4.97;4.00;;;24.40;51.40;;;;;;4977162;28;20038;-48
2023/07/17 12:18:02;;;;;;;4.90;3.63;;;24.40;51.50;;;;;;4983685;28;20034;-55
2023/07/17 12:20:29;;;;;;;5.55;3.45;;;24.40;51.80;;;;;;4976026;28;20026;-55
2023/07/17 12:22:56;;;;;;;4.95;3.83;;;24.40;51.80;;;;;;4974656;28;20054;-54
2023/07/17 12:25:22;;;;;;;4.63;4.05;;;24.40;51.60;;;;;;4976666;28;20027;-58
2023/07/17 12:27:48;;;;;;;4.03;3.63;;;24.40;51.60;;;;;;4972852;28;20088;-53
2023/07/17 12:30:14;;;;;;;4.22;3.50;;;24.40;51.90;;;;;;4975346;28;20026;-54
2023/07/17 12:32:41;;;;;;;4.50;3.67;;;24.40;51.80;;;;;;4972327;28;20038;-48
2023/07/17 12:35:07;;;;;;;4.28;3.47;;;24.40;51.60;;;;;;4977338;28;20409;-53
2023/07/17 12:37:33;;;;;;;3.20;2.85;;;24.40;51.50;;;;;;4974703;28;20065;-56
2023/07/17 12:39:59;;;;;;;4.18;3.40;;;24.30;51.60;;;;;;4977327;28;20046;-51
2023/07/17 12:42:24;;;;;;;5.45;3.80;;;24.30;51.80;;;;;;4982428;28;20034;-53
2023/07/17 12:44:50;;;;;;;4.68;3.65;;;24.40;51.60;;;;;;4978595;28;20425;-53